Terminal Aerodrome Forecast
Issued by NWS

Home | Current Version | Previous Version | Text Only | Print | Product List | Glossary On
Versions: 1 2 3 4 5 6 7 8 9 10 11 12 13
000
FTUS46 KSGX 311100
TAFSNA
TAF
KSNA 311120Z 3112/0112 20003KT P6SM SCT010
     FM312000 22008KT P6SM FEW010 SCT200
     FM010100 VRB05KT P6SM FEW010
     FM011000 00000KT P6SM BKN009=

USA.gov is the U.S. government's official web portal to all federal, state and local government web resources and services.